createdAt,value
2023-07-12T00:00:48.639Z,96.70
2023-07-12T00:03:51.118Z,96.70
2023-07-12T00:06:53.506Z,96.70
2023-07-12T00:09:55.544Z,96.60
2023-07-12T00:12:58.039Z,96.80
2023-07-12T00:16:00.226Z,96.70
2023-07-12T00:19:02.822Z,96.80
2023-07-12T00:22:06.523Z,96.90
2023-07-12T00:25:08.952Z,97.00
2023-07-12T00:28:27.367Z,97.10
2023-07-12T00:31:29.580Z,97.30
2023-07-12T00:34:31.747Z,97.30
2023-07-12T00:37:34.017Z,97.30
2023-07-12T00:40:39.230Z,97.30
2023-07-12T00:44:09.215Z,97.40
2023-07-12T00:47:13.851Z,97.50
2023-07-12T00:50:21.901Z,97.70
2023-07-12T00:53:26.002Z,97.90
2023-07-12T00:56:28.493Z,97.90
2023-07-12T00:59:31.480Z,98.10
2023-07-12T01:02:33.829Z,98.10
2023-07-12T01:05:37.374Z,98.00
2023-07-12T01:08:43.879Z,97.90
2023-07-12T01:11:46.924Z,97.80
2023-07-12T01:14:49.180Z,97.80
2023-07-12T01:17:52.172Z,97.80
2023-07-12T01:21:20.158Z,97.50
2023-07-12T01:24:24.536Z,97.60
2023-07-12T01:27:26.900Z,97.80
2023-07-12T01:30:29.769Z,97.80
2023-07-12T01:33:31.929Z,98.00
2023-07-12T01:36:34.123Z,98.10
2023-07-12T01:39:36.812Z,98.20
2023-07-12T01:42:39.001Z,98.10
2023-07-12T01:45:41.150Z,98.20
2023-07-12T01:48:43.272Z,98.20
2023-07-12T01:51:45.585Z,98.20
2023-07-12T01:54:47.715Z,98.20
2023-07-12T01:57:49.789Z,98.20
2023-07-12T02:00:52.969Z,98.40
2023-07-12T02:03:55.161Z,98.40
2023-07-12T02:06:57.372Z,98.60
2023-07-12T02:10:12.078Z,98.80
2023-07-12T02:13:14.965Z,98.90
2023-07-12T02:16:17.244Z,98.90
2023-07-12T02:19:19.481Z,98.80
2023-07-12T02:22:21.814Z,99.30
2023-07-12T02:25:24.399Z,98.90
2023-07-12T02:28:26.729Z,99.00
2023-07-12T02:31:32.553Z,99.30
2023-07-12T02:34:34.863Z,99.40
2023-07-12T02:37:37.885Z,99.50
2023-07-12T02:40:40.006Z,99.30
2023-07-12T02:43:42.113Z,99.40
2023-07-12T02:46:44.341Z,99.30
2023-07-12T02:49:46.512Z,99.40
2023-07-12T02:52:48.665Z,99.70
2023-07-12T02:55:52.250Z,99.80
2023-07-12T02:58:54.366Z,99.90
2023-07-12T03:01:56.748Z,99.80
2023-07-12T03:04:59.007Z,99.80
2023-07-12T03:08:01.163Z,99.80
2023-07-12T03:11:08.516Z,99.90
2023-07-12T03:14:11.159Z,99.70
2023-07-12T03:17:13.235Z,99.90
2023-07-12T03:20:15.401Z,99.90
2023-07-12T03:23:18.850Z,99.90
2023-07-12T03:26:20.997Z,99.90
2023-07-12T03:29:23.357Z,99.90
2023-07-12T03:32:26.398Z,99.90
2023-07-12T03:35:29.213Z,99.90
2023-07-12T03:38:32.471Z,99.90
2023-07-12T03:41:35.329Z,99.90
2023-07-12T03:44:38.112Z,99.90
2023-07-12T03:47:40.402Z,99.90
2023-07-12T03:50:43.583Z,99.90
2023-07-12T03:53:46.224Z,99.90
2023-07-12T03:56:48.719Z,99.90
2023-07-12T03:59:52.033Z,99.90
2023-07-12T04:02:54.329Z,99.90
2023-07-12T04:05:56.476Z,99.90
2023-07-12T04:08:59.156Z,99.90
2023-07-12T04:12:01.243Z,99.90
2023-07-12T04:15:04.022Z,99.90
2023-07-12T04:18:06.700Z,99.90
2023-07-12T04:21:09.495Z,99.90
2023-07-12T04:24:11.762Z,99.90
2023-07-12T04:27:13.991Z,99.90
2023-07-12T04:30:18.121Z,99.90
2023-07-12T04:33:20.225Z,99.90
2023-07-12T04:36:22.402Z,99.90
2023-07-12T04:39:24.521Z,99.90
2023-07-12T04:42:26.637Z,99.90
2023-07-12T04:45:28.790Z,99.90
2023-07-12T04:48:31.748Z,99.90
2023-07-12T04:51:33.836Z,99.90
2023-07-12T04:54:36.082Z,99.90
2023-07-12T04:57:38.194Z,99.90
2023-07-12T05:00:41.624Z,99.90
2023-07-12T05:03:43.864Z,99.90
2023-07-12T05:06:45.961Z,99.90
2023-07-12T05:09:48.072Z,99.90
2023-07-12T05:12:50.294Z,99.90
2023-07-12T05:15:53.600Z,99.90
2023-07-12T05:18:56.733Z,99.90
2023-07-12T05:21:58.964Z,99.90
2023-07-12T05:25:01.530Z,99.90
2023-07-12T05:28:03.819Z,99.90
2023-07-12T05:31:11.204Z,99.90
2023-07-12T05:34:13.666Z,99.90
2023-07-12T05:37:16.521Z,99.90
2023-07-12T05:40:18.643Z,99.90
2023-07-12T05:43:27.598Z,99.90
2023-07-12T05:46:30.972Z,99.90
2023-07-12T05:49:33.296Z,99.90
2023-07-12T05:52:35.457Z,99.90
2023-07-12T05:55:37.531Z,99.90
2023-07-12T05:58:40.679Z,99.90
2023-07-12T06:01:42.973Z,99.90
2023-07-12T06:04:45.353Z,99.90
2023-07-12T06:07:47.782Z,99.90
2023-07-12T06:10:50.031Z,99.90
2023-07-12T06:13:52.191Z,99.90
2023-07-12T06:16:54.498Z,99.90
2023-07-12T06:19:56.635Z,99.90
2023-07-12T06:22:58.975Z,99.90
2023-07-12T06:26:01.461Z,99.90
2023-07-12T06:29:04.312Z,99.90
2023-07-12T06:32:06.798Z,99.90
2023-07-12T06:35:09.598Z,99.90
2023-07-12T06:38:14.055Z,99.90
2023-07-12T06:41:16.256Z,99.90
2023-07-12T06:44:18.661Z,99.90
2023-07-12T06:47:23.215Z,99.90
2023-07-12T06:50:25.341Z,99.90
2023-07-12T06:53:27.965Z,99.90
2023-07-12T06:56:30.232Z,99.90
2023-07-12T06:59:32.477Z,99.90
2023-07-12T07:02:35.027Z,99.90
2023-07-12T07:05:40.309Z,99.90
2023-07-12T07:08:42.946Z,99.90
2023-07-12T07:11:45.593Z,99.90
2023-07-12T07:14:47.723Z,99.80
2023-07-12T07:17:50.223Z,99.60
2023-07-12T07:20:53.799Z,99.80
2023-07-12T07:23:56.014Z,99.90
2023-07-12T07:26:58.280Z,99.50
2023-07-12T07:30:00.412Z,99.30
2023-07-12T07:33:02.830Z,99.40
2023-07-12T07:36:08.355Z,99.20
2023-07-12T07:39:10.906Z,98.80
2023-07-12T07:42:13.300Z,98.40
2023-07-12T07:45:15.568Z,97.80
2023-07-12T07:48:17.674Z,97.40
2023-07-12T07:51:20.461Z,96.70
2023-07-12T07:54:22.671Z,96.60
2023-07-12T07:57:24.859Z,96.30
2023-07-12T08:00:27.104Z,96.40
2023-07-12T08:03:31.481Z,96.40
2023-07-12T08:06:34.709Z,96.70
2023-07-12T08:09:37.009Z,96.60
2023-07-12T08:12:39.626Z,96.90
2023-07-12T08:15:43.214Z,96.70
2023-07-12T08:18:45.524Z,96.70
2023-07-12T08:21:48.861Z,96.70
2023-07-12T08:24:51.315Z,97.20
2023-07-12T08:27:53.414Z,97.10
2023-07-12T08:30:55.751Z,96.60
2023-07-12T08:33:58.057Z,95.60
2023-07-12T08:37:00.177Z,93.30
2023-07-12T08:40:02.351Z,92.20
2023-07-12T08:43:12.693Z,90.40
2023-07-12T08:46:25.026Z,83.50
2023-07-12T08:49:28.353Z,81.30
2023-07-12T08:52:34.811Z,77.00
2023-07-12T08:55:38.486Z,73.60
2023-07-12T08:58:48.836Z,75.40
2023-07-12T09:01:54.819Z,74.10
2023-07-12T09:05:00.480Z,73.00
2023-07-12T09:08:21.402Z,71.60
2023-07-12T09:11:33.386Z,69.30
2023-07-12T09:14:38.468Z,70.90
2023-07-12T09:17:45.050Z,69.90
2023-07-12T09:20:52.074Z,67.20
2023-07-12T09:23:59.997Z,65.70
2023-07-12T09:27:08.070Z,65.10
2023-07-12T09:30:10.279Z,63.40
2023-07-12T09:33:25.505Z,62.30
2023-07-12T09:36:28.273Z,60.50
2023-07-12T09:39:30.761Z,62.50
2023-07-12T09:42:33.307Z,60.80
2023-07-12T09:45:38.560Z,61.50
2023-07-12T09:48:54.556Z,58.20
2023-07-12T09:52:15.696Z,58.60
2023-07-12T09:55:23.535Z,61.40
2023-07-12T09:59:12.023Z,62.70
2023-07-12T10:02:25.380Z,62.40
2023-07-12T10:05:27.594Z,63.50
2023-07-12T10:09:01.694Z,65.00
2023-07-12T10:12:20.569Z,64.90
2023-07-12T10:15:37.523Z,62.80
2023-07-12T10:18:40.447Z,62.10
2023-07-12T10:21:43.781Z,60.20
2023-07-12T10:24:50.284Z,60.90
2023-07-12T10:28:01.809Z,59.00
2023-07-12T10:31:28.727Z,59.50
2023-07-12T10:34:41.338Z,59.80
2023-07-12T10:38:01.000Z,58.30
2023-07-12T10:41:27.120Z,58.10
2023-07-12T10:44:33.575Z,58.80
2023-07-12T10:47:41.099Z,59.00
2023-07-12T10:50:49.588Z,58.80
2023-07-12T10:53:54.740Z,60.00
2023-07-12T10:57:05.332Z,59.00
2023-07-12T11:00:19.446Z,59.10
2023-07-12T11:03:52.532Z,58.30
2023-07-12T11:07:15.986Z,57.70
2023-07-12T11:10:27.339Z,57.80
2023-07-12T11:13:36.891Z,57.20
2023-07-12T11:17:05.862Z,58.20
2023-07-12T11:20:10.264Z,59.50
2023-07-12T11:23:29.089Z,59.90
2023-07-12T11:26:36.275Z,60.50
2023-07-12T11:29:47.955Z,59.70
2023-07-12T11:32:55.160Z,61.30
2023-07-12T11:36:10.200Z,62.20
2023-07-12T11:39:21.828Z,63.80
2023-07-12T11:42:27.088Z,63.60
2023-07-12T11:45:29.340Z,65.20
2023-07-12T11:48:34.676Z,66.60
2023-07-12T11:51:41.317Z,67.60
2023-07-12T11:54:44.904Z,67.70
2023-07-12T11:57:49.295Z,68.40
2023-07-12T12:00:54.853Z,69.60
2023-07-12T12:03:57.492Z,70.60
2023-07-12T12:07:04.034Z,71.10
2023-07-12T12:10:07.951Z,72.80
2023-07-12T12:13:19.726Z,73.40
2023-07-12T12:16:31.780Z,73.70
2023-07-12T12:19:34.262Z,73.00
2023-07-12T12:22:42.512Z,73.50
2023-07-12T12:25:48.709Z,73.70
2023-07-12T12:28:59.796Z,73.20
2023-07-12T12:32:06.539Z,73.80
2023-07-12T12:35:14.886Z,74.40
2023-07-12T12:38:23.362Z,74.70
2023-07-12T12:41:32.537Z,74.80
2023-07-12T12:44:37.886Z,74.60
2023-07-12T12:47:41.035Z,75.50
2023-07-12T12:53:54.535Z,75.10
2023-07-12T12:58:13.515Z,75.50
2023-07-12T13:04:54.523Z,76.20
2023-07-12T13:07:01.908Z,76.60
2023-07-12T13:19:30.689Z,76.60
2023-07-12T13:22:32.913Z,76.60
2023-07-12T13:25:38.756Z,76.20
2023-07-12T13:28:41.195Z,75.20
2023-07-12T13:31:43.337Z,74.80
2023-07-12T13:38:05.263Z,73.70
2023-07-12T13:47:26.813Z,74.30
2023-07-12T13:50:29.504Z,74.90
2023-07-12T13:53:31.742Z,75.20
2023-07-12T13:59:42.597Z,73.80
2023-07-12T14:05:58.161Z,74.00
2023-07-12T14:09:00.975Z,74.40
2023-07-12T14:12:03.514Z,73.40
2023-07-12T14:15:06.266Z,73.60
2023-07-12T14:18:11.075Z,72.50
2023-07-12T14:21:18.937Z,73.40
2023-07-12T14:24:21.018Z,73.50
2023-07-12T14:27:27.650Z,72.90
2023-07-12T14:33:40.169Z,72.70
2023-07-12T14:36:42.285Z,72.30
2023-07-12T14:39:45.263Z,72.50
2023-07-12T14:42:48.074Z,71.40
2023-07-12T14:45:50.720Z,70.90
2023-07-12T14:48:52.884Z,71.00
2023-07-12T14:52:08.812Z,70.60
2023-07-12T14:55:16.109Z,70.90
2023-07-12T14:58:21.767Z,70.90
2023-07-12T15:01:29.115Z,71.80
2023-07-12T15:04:31.629Z,71.90
2023-07-12T15:07:36.368Z,72.00
2023-07-12T15:10:38.550Z,72.30
2023-07-12T15:13:40.744Z,72.30
2023-07-12T15:16:46.968Z,73.20
2023-07-12T15:19:49.075Z,73.20
2023-07-12T15:22:51.332Z,73.40
2023-07-12T15:25:54.491Z,73.30
2023-07-12T15:28:56.675Z,73.80
2023-07-12T15:31:58.904Z,73.40
2023-07-12T15:35:01.037Z,73.40
2023-07-12T15:38:05.599Z,73.50
2023-07-12T15:41:17.965Z,72.60
2023-07-12T15:44:20.118Z,72.00
2023-07-12T15:47:22.282Z,72.20
2023-07-12T15:50:25.609Z,72.20
2023-07-12T15:53:27.883Z,72.30
2023-07-12T15:56:36.763Z,71.20
2023-07-12T15:59:40.830Z,71.80
2023-07-12T16:02:42.879Z,72.20
2023-07-12T16:05:48.542Z,72.30
2023-07-12T16:08:52.063Z,73.30
2023-07-12T16:11:54.386Z,72.80
2023-07-12T16:14:57.049Z,72.70
2023-07-12T16:17:59.234Z,73.00
2023-07-12T16:21:01.808Z,73.10
2023-07-12T16:24:05.245Z,73.20
2023-07-12T16:27:10.553Z,73.80
2023-07-12T16:30:20.618Z,74.00
2023-07-12T16:33:26.357Z,74.60
2023-07-12T16:36:30.110Z,74.70
2023-07-12T16:39:32.524Z,75.20
2023-07-12T16:42:36.048Z,75.60
2023-07-12T16:45:38.170Z,75.90
2023-07-12T16:48:44.680Z,75.40
2023-07-12T16:52:05.736Z,76.30
2023-07-12T16:55:21.219Z,76.80
2023-07-12T16:58:25.317Z,76.70
2023-07-12T17:01:31.543Z,76.90
2023-07-12T17:04:34.282Z,76.90
2023-07-12T17:07:36.486Z,76.40
2023-07-12T17:10:39.590Z,76.60
2023-07-12T17:13:44.084Z,76.40
2023-07-12T17:16:46.881Z,75.90
2023-07-12T17:19:50.087Z,76.10
2023-07-12T17:22:53.406Z,76.10
2023-07-12T17:25:56.756Z,76.20
2023-07-12T17:28:59.122Z,76.30
2023-07-12T17:32:01.455Z,76.30
2023-07-12T17:35:04.858Z,76.30
2023-07-12T17:38:13.052Z,76.30
2023-07-12T17:41:43.885Z,76.80
2023-07-12T17:44:48.022Z,76.40
2023-07-12T17:47:50.242Z,75.80
2023-07-12T17:51:02.698Z,75.60
2023-07-12T17:54:05.070Z,75.20
2023-07-12T17:57:08.958Z,75.20
2023-07-12T18:00:12.590Z,75.20
2023-07-12T18:03:16.341Z,75.30
2023-07-12T18:06:22.284Z,75.90
2023-07-12T18:09:24.497Z,76.20
2023-07-12T18:12:26.891Z,75.70
2023-07-12T18:15:29.154Z,75.40
2023-07-12T18:18:31.199Z,75.10
2023-07-12T18:21:36.757Z,75.10
2023-07-12T18:24:38.950Z,75.40
2023-07-12T18:27:42.459Z,75.30
2023-07-12T18:30:47.468Z,74.50
2023-07-12T18:33:49.628Z,74.70
2023-07-12T18:36:51.933Z,75.20
2023-07-12T18:39:55.757Z,74.90
2023-07-12T18:42:57.862Z,75.40
2023-07-12T18:46:00.088Z,76.00
2023-07-12T18:49:02.889Z,76.10
2023-07-12T18:52:13.201Z,76.30
2023-07-12T18:55:16.202Z,76.70
2023-07-12T18:58:19.565Z,77.00
2023-07-12T19:01:24.888Z,77.40
2023-07-12T19:04:27.199Z,78.10
2023-07-12T19:07:30.601Z,78.20
2023-07-12T19:10:33.256Z,79.20
2023-07-12T19:13:35.347Z,79.50
2023-07-12T19:16:37.615Z,80.20
2023-07-12T19:19:41.061Z,80.90
2023-07-12T19:22:43.733Z,81.20
2023-07-12T19:25:45.965Z,80.80
2023-07-12T19:28:48.495Z,81.30
2023-07-12T19:31:51.015Z,81.60
2023-07-12T19:34:53.474Z,82.10
2023-07-12T19:37:55.955Z,82.30
2023-07-12T19:40:58.181Z,82.20
2023-07-12T19:44:00.372Z,82.40
2023-07-12T19:47:10.496Z,81.90
2023-07-12T19:50:14.536Z,82.10
2023-07-12T19:53:25.223Z,81.80
2023-07-12T19:56:29.615Z,81.60
2023-07-12T19:59:31.688Z,81.60
2023-07-12T20:02:33.853Z,81.30
2023-07-12T20:05:36.146Z,81.70
2023-07-12T20:08:38.888Z,82.40
2023-07-12T20:11:42.352Z,82.20
2023-07-12T20:14:44.534Z,82.30
2023-07-12T20:17:46.766Z,82.30
2023-07-12T20:20:53.809Z,82.00
2023-07-12T20:23:56.575Z,82.00
2023-07-12T20:26:59.885Z,82.30
2023-07-12T20:30:02.325Z,82.70
2023-07-12T20:33:04.630Z,83.20
2023-07-12T20:36:08.171Z,83.40
2023-07-12T20:39:10.975Z,83.80
2023-07-12T20:42:20.924Z,84.30
2023-07-12T20:45:25.785Z,84.10
2023-07-12T20:48:34.040Z,84.20
2023-07-12T20:51:38.073Z,84.50
2023-07-12T20:54:40.224Z,84.40
2023-07-12T20:57:42.470Z,85.40
2023-07-12T21:00:47.833Z,85.10
2023-07-12T21:03:51.448Z,85.10
2023-07-12T21:06:53.761Z,85.10
2023-07-12T21:09:55.853Z,85.40
2023-07-12T21:12:58.208Z,85.80
2023-07-12T21:16:05.691Z,86.50
2023-07-12T21:19:07.898Z,87.40
2023-07-12T21:22:10.030Z,88.90
2023-07-12T21:25:12.593Z,87.70
2023-07-12T21:28:16.791Z,88.80
2023-07-12T21:31:20.748Z,88.90
2023-07-12T21:34:22.980Z,89.20
2023-07-12T21:37:25.236Z,89.30
2023-07-12T21:40:30.847Z,89.80
2023-07-12T21:43:33.264Z,90.10
2023-07-12T21:46:35.542Z,90.40
2023-07-12T21:49:37.967Z,90.50
2023-07-12T21:52:40.095Z,90.90
2023-07-12T21:55:42.270Z,91.10
2023-07-12T21:58:44.340Z,91.10
2023-07-12T22:01:46.779Z,91.10
2023-07-12T22:04:49.950Z,91.10
2023-07-12T22:07:55.344Z,91.20
2023-07-12T22:11:06.728Z,91.30
2023-07-12T22:14:10.568Z,91.40
2023-07-12T22:17:15.072Z,91.50
2023-07-12T22:20:19.308Z,91.00
2023-07-12T22:23:23.121Z,91.30
2023-07-12T22:26:28.102Z,91.40
2023-07-12T22:29:30.239Z,91.50
2023-07-12T22:32:32.791Z,92.00
2023-07-12T22:35:37.299Z,91.90
2023-07-12T22:38:40.133Z,92.10
2023-07-12T22:41:42.182Z,92.30
2023-07-12T22:44:44.417Z,92.40
2023-07-12T22:47:46.477Z,92.10
2023-07-12T22:50:48.765Z,92.20
2023-07-12T22:53:50.914Z,92.30
2023-07-12T22:56:53.342Z,92.20
2023-07-12T22:59:55.554Z,92.20
2023-07-12T23:02:57.816Z,92.20
2023-07-12T23:05:59.965Z,92.00
2023-07-12T23:09:06.363Z,91.90
2023-07-12T23:12:09.130Z,92.10
2023-07-12T23:15:12.952Z,91.90
2023-07-12T23:18:15.010Z,91.60
2023-07-12T23:21:19.563Z,91.70
2023-07-12T23:24:21.624Z,91.90
2023-07-12T23:27:23.992Z,92.00
2023-07-12T23:30:27.118Z,91.90
2023-07-12T23:33:30.746Z,92.00
2023-07-12T23:36:33.306Z,92.20
2023-07-12T23:39:36.554Z,91.90
2023-07-12T23:42:38.824Z,92.00
2023-07-12T23:45:41.012Z,92.20
2023-07-12T23:48:45.379Z,92.30
2023-07-12T23:51:47.974Z,92.10
2023-07-12T23:54:50.657Z,92.10
2023-07-12T23:57:53.359Z,92.10
